sensor_id;sensor_type;location;lat;lon;timestamp;P1;durP1;ratioP1;P2;durP2;ratioP2
30380;SDS011;17169;50.966;11.038;2023-02-28T00:01:55;8.95;;;4.45;;
30380;SDS011;17169;50.966;11.038;2023-02-28T00:04:57;7.25;;;4.07;;
30380;SDS011;17169;50.966;11.038;2023-02-28T00:08:03;7.97;;;4.75;;
30380;SDS011;17169;50.966;11.038;2023-02-28T00:11:06;6.30;;;4.50;;
30380;SDS011;17169;50.966;11.038;2023-02-28T00:14:09;6.95;;;4.28;;
30380;SDS011;17169;50.966;11.038;2023-02-28T00:17:11;8.18;;;4.30;;
30380;SDS011;17169;50.966;11.038;2023-02-28T00:20:14;10.18;;;4.80;;
30380;SDS011;17169;50.966;11.038;2023-02-28T00:23:18;10.68;;;4.55;;
30380;SDS011;17169;50.966;11.038;2023-02-28T00:26:21;7.97;;;3.67;;
30380;SDS011;17169;50.966;11.038;2023-02-28T00:29:24;7.25;;;4.28;;
30380;SDS011;17169;50.966;11.038;2023-02-28T00:32:26;8.00;;;3.97;;
30380;SDS011;17169;50.966;11.038;2023-02-28T00:35:28;7.47;;;4.32;;
30380;SDS011;17169;50.966;11.038;2023-02-28T00:38:32;7.22;;;4.28;;
30380;SDS011;17169;50.966;11.038;2023-02-28T00:41:35;8.13;;;4.27;;
30380;SDS011;17169;50.966;11.038;2023-02-28T00:44:37;8.45;;;4.28;;
30380;SDS011;17169;50.966;11.038;2023-02-28T00:47:39;12.48;;;4.72;;
30380;SDS011;17169;50.966;11.038;2023-02-28T00:50:42;11.38;;;5.05;;
30380;SDS011;17169;50.966;11.038;2023-02-28T00:53:46;8.70;;;4.53;;
30380;SDS011;17169;50.966;11.038;2023-02-28T00:56:48;7.15;;;4.20;;
30380;SDS011;17169;50.966;11.038;2023-02-28T00:59:51;11.05;;;4.55;;
30380;SDS011;17169;50.966;11.038;2023-02-28T01:02:54;9.73;;;4.57;;
30380;SDS011;17169;50.966;11.038;2023-02-28T01:05:57;12.98;;;5.15;;
30380;SDS011;17169;50.966;11.038;2023-02-28T01:09:01;6.30;;;3.92;;
30380;SDS011;17169;50.966;11.038;2023-02-28T01:12:03;9.48;;;4.70;;
30380;SDS011;17169;50.966;11.038;2023-02-28T01:15:06;10.88;;;4.50;;
30380;SDS011;17169;50.966;11.038;2023-02-28T01:18:11;7.35;;;4.65;;
30380;SDS011;17169;50.966;11.038;2023-02-28T01:21:15;9.30;;;4.32;;
30380;SDS011;17169;50.966;11.038;2023-02-28T01:24:19;8.45;;;4.60;;
30380;SDS011;17169;50.966;11.038;2023-02-28T01:27:22;7.60;;;5.07;;
30380;SDS011;17169;50.966;11.038;2023-02-28T01:30:24;8.65;;;4.85;;
30380;SDS011;17169;50.966;11.038;2023-02-28T01:33:27;11.23;;;4.80;;
30380;SDS011;17169;50.966;11.038;2023-02-28T01:36:30;9.05;;;5.40;;
30380;SDS011;17169;50.966;11.038;2023-02-28T01:39:34;10.20;;;5.10;;
30380;SDS011;17169;50.966;11.038;2023-02-28T01:42:36;9.00;;;4.50;;
30380;SDS011;17169;50.966;11.038;2023-02-28T01:45:38;8.65;;;4.53;;
30380;SDS011;17169;50.966;11.038;2023-02-28T01:48:42;8.38;;;5.07;;
30380;SDS011;17169;50.966;11.038;2023-02-28T01:51:50;9.20;;;5.30;;
30380;SDS011;17169;50.966;11.038;2023-02-28T01:54:58;8.13;;;4.68;;
30380;SDS011;17169;50.966;11.038;2023-02-28T01:58:02;7.93;;;5.20;;
30380;SDS011;17169;50.966;11.038;2023-02-28T02:01:09;9.60;;;5.28;;
30380;SDS011;17169;50.966;11.038;2023-02-28T02:04:22;8.32;;;5.10;;
30380;SDS011;17169;50.966;11.038;2023-02-28T02:07:28;7.30;;;4.60;;
30380;SDS011;17169;50.966;11.038;2023-02-28T02:10:35;7.68;;;4.47;;
30380;SDS011;17169;50.966;11.038;2023-02-28T02:13:45;9.32;;;5.20;;
30380;SDS011;17169;50.966;11.038;2023-02-28T02:17:05;8.73;;;5.03;;
30380;SDS011;17169;50.966;11.038;2023-02-28T02:27:31;9.90;;;4.78;;
30380;SDS011;17169;50.966;11.038;2023-02-28T02:30:46;8.98;;;4.63;;
30380;SDS011;17169;50.966;11.038;2023-02-28T02:34:25;9.18;;;5.00;;
30380;SDS011;17169;50.966;11.038;2023-02-28T02:37:38;8.48;;;5.10;;
30380;SDS011;17169;50.966;11.038;2023-02-28T02:40:46;6.35;;;3.90;;
30380;SDS011;17169;50.966;11.038;2023-02-28T02:43:56;7.07;;;3.75;;
30380;SDS011;17169;50.966;11.038;2023-02-28T02:47:06;10.27;;;4.50;;
30380;SDS011;17169;50.966;11.038;2023-02-28T02:50:15;8.57;;;4.00;;
30380;SDS011;17169;50.966;11.038;2023-02-28T02:53:21;9.25;;;4.68;;
30380;SDS011;17169;50.966;11.038;2023-02-28T02:56:28;7.95;;;4.60;;
30380;SDS011;17169;50.966;11.038;2023-02-28T02:59:34;11.25;;;4.97;;
30380;SDS011;17169;50.966;11.038;2023-02-28T03:02:39;7.13;;;4.10;;
30380;SDS011;17169;50.966;11.038;2023-02-28T03:05:45;8.50;;;5.18;;
30380;SDS011;17169;50.966;11.038;2023-02-28T03:08:49;8.75;;;4.40;;
30380;SDS011;17169;50.966;11.038;2023-02-28T03:11:52;9.32;;;4.43;;
30380;SDS011;17169;50.966;11.038;2023-02-28T03:14:59;8.25;;;4.55;;
30380;SDS011;17169;50.966;11.038;2023-02-28T03:18:10;8.90;;;4.03;;
30380;SDS011;17169;50.966;11.038;2023-02-28T03:21:25;7.50;;;4.13;;
30380;SDS011;17169;50.966;11.038;2023-02-28T03:24:32;7.25;;;3.85;;
30380;SDS011;17169;50.966;11.038;2023-02-28T03:27:45;7.28;;;4.07;;
30380;SDS011;17169;50.966;11.038;2023-02-28T03:30:57;7.95;;;3.92;;
30380;SDS011;17169;50.966;11.038;2023-02-28T03:34:03;8.43;;;4.22;;
30380;SDS011;17169;50.966;11.038;2023-02-28T03:37:10;6.75;;;3.90;;
30380;SDS011;17169;50.966;11.038;2023-02-28T03:40:18;7.53;;;4.15;;
30380;SDS011;17169;50.966;11.038;2023-02-28T03:43:24;10.93;;;4.82;;
30380;SDS011;17169;50.966;11.038;2023-02-28T03:46:31;6.80;;;3.92;;
30380;SDS011;17169;50.966;11.038;2023-02-28T03:49:39;7.97;;;4.40;;
30380;SDS011;17169;50.966;11.038;2023-02-28T03:52:47;6.80;;;3.97;;
30380;SDS011;17169;50.966;11.038;2023-02-28T03:55:52;6.82;;;3.80;;
30380;SDS011;17169;50.966;11.038;2023-02-28T03:59:00;9.10;;;4.53;;
30380;SDS011;17169;50.966;11.038;2023-02-28T04:02:07;6.55;;;4.22;;
30380;SDS011;17169;50.966;11.038;2023-02-28T04:05:09;7.88;;;4.07;;
30380;SDS011;17169;50.966;11.038;2023-02-28T04:08:13;6.70;;;4.55;;
30380;SDS011;17169;50.966;11.038;2023-02-28T04:11:20;6.72;;;3.95;;
30380;SDS011;17169;50.966;11.038;2023-02-28T04:14:24;6.60;;;3.67;;
30380;SDS011;17169;50.966;11.038;2023-02-28T04:17:27;6.47;;;4.05;;
30380;SDS011;17169;50.966;11.038;2023-02-28T04:20:29;6.78;;;4.25;;
30380;SDS011;17169;50.966;11.038;2023-02-28T04:23:33;7.13;;;3.83;;
30380;SDS011;17169;50.966;11.038;2023-02-28T04:26:36;10.15;;;4.10;;
30380;SDS011;17169;50.966;11.038;2023-02-28T04:29:38;6.20;;;3.63;;
30380;SDS011;17169;50.966;11.038;2023-02-28T04:32:44;8.38;;;4.70;;
30380;SDS011;17169;50.966;11.038;2023-02-28T04:35:47;7.63;;;4.50;;
30380;SDS011;17169;50.966;11.038;2023-02-28T04:38:51;11.18;;;4.90;;
30380;SDS011;17169;50.966;11.038;2023-02-28T04:41:53;8.23;;;4.13;;
30380;SDS011;17169;50.966;11.038;2023-02-28T04:44:55;10.38;;;4.72;;
30380;SDS011;17169;50.966;11.038;2023-02-28T04:47:58;8.77;;;4.72;;
30380;SDS011;17169;50.966;11.038;2023-02-28T04:51:00;10.30;;;5.45;;
30380;SDS011;17169;50.966;11.038;2023-02-28T04:54:05;9.07;;;4.63;;
30380;SDS011;17169;50.966;11.038;2023-02-28T04:57:07;8.15;;;5.32;;
30380;SDS011;17169;50.966;11.038;2023-02-28T05:00:10;10.90;;;5.38;;
30380;SDS011;17169;50.966;11.038;2023-02-28T05:03:17;10.45;;;5.40;;
30380;SDS011;17169;50.966;11.038;2023-02-28T05:06:20;10.85;;;5.93;;
30380;SDS011;17169;50.966;11.038;2023-02-28T05:09:25;9.02;;;5.03;;
30380;SDS011;17169;50.966;11.038;2023-02-28T05:12:27;8.27;;;4.35;;
30380;SDS011;17169;50.966;11.038;2023-02-28T05:15:30;9.48;;;5.18;;
30380;SDS011;17169;50.966;11.038;2023-02-28T05:18:32;10.98;;;4.78;;
30380;SDS011;17169;50.966;11.038;2023-02-28T05:21:35;10.20;;;4.57;;
30380;SDS011;17169;50.966;11.038;2023-02-28T05:24:39;8.25;;;4.20;;
30380;SDS011;17169;50.966;11.038;2023-02-28T05:27:43;12.02;;;4.80;;
30380;SDS011;17169;50.966;11.038;2023-02-28T05:30:45;8.43;;;4.32;;
30380;SDS011;17169;50.966;11.038;2023-02-28T05:33:47;6.60;;;4.38;;
30380;SDS011;17169;50.966;11.038;2023-02-28T05:36:50;8.57;;;4.80;;
30380;SDS011;17169;50.966;11.038;2023-02-28T05:39:53;10.52;;;4.75;;
30380;SDS011;17169;50.966;11.038;2023-02-28T05:42:56;13.73;;;5.88;;
30380;SDS011;17169;50.966;11.038;2023-02-28T05:45:58;9.50;;;5.20;;
30380;SDS011;17169;50.966;11.038;2023-02-28T05:49:01;9.15;;;5.20;;
30380;SDS011;17169;50.966;11.038;2023-02-28T05:52:04;16.65;;;5.15;;
30380;SDS011;17169;50.966;11.038;2023-02-28T05:55:08;8.30;;;4.35;;
30380;SDS011;17169;50.966;11.038;2023-02-28T05:58:11;10.40;;;4.80;;
30380;SDS011;17169;50.966;11.038;2023-02-28T06:01:20;6.63;;;3.70;;
30380;SDS011;17169;50.966;11.038;2023-02-28T06:04:24;6.90;;;3.85;;
30380;SDS011;17169;50.966;11.038;2023-02-28T06:07:27;8.55;;;4.43;;
30380;SDS011;17169;50.966;11.038;2023-02-28T06:10:30;9.80;;;4.97;;
30380;SDS011;17169;50.966;11.038;2023-02-28T06:13:33;7.32;;;3.97;;
30380;SDS011;17169;50.966;11.038;2023-02-28T06:16:35;9.38;;;4.47;;
30380;SDS011;17169;50.966;11.038;2023-02-28T06:19:37;8.45;;;4.70;;
30380;SDS011;17169;50.966;11.038;2023-02-28T06:22:41;8.32;;;4.40;;
30380;SDS011;17169;50.966;11.038;2023-02-28T06:25:45;9.35;;;4.60;;
30380;SDS011;17169;50.966;11.038;2023-02-28T06:28:48;7.13;;;4.18;;
30380;SDS011;17169;50.966;11.038;2023-02-28T06:31:51;7.65;;;4.50;;
30380;SDS011;17169;50.966;11.038;2023-02-28T06:34:53;9.55;;;5.60;;
30380;SDS011;17169;50.966;11.038;2023-02-28T06:37:57;8.83;;;4.67;;
30380;SDS011;17169;50.966;11.038;2023-02-28T06:41:01;9.73;;;4.45;;
30380;SDS011;17169;50.966;11.038;2023-02-28T06:44:04;9.73;;;5.28;;
30380;SDS011;17169;50.966;11.038;2023-02-28T06:47:07;11.95;;;4.93;;
30380;SDS011;17169;50.966;11.038;2023-02-28T06:50:10;10.63;;;5.82;;
30380;SDS011;17169;50.966;11.038;2023-02-28T06:53:13;14.50;;;4.73;;
30380;SDS011;17169;50.966;11.038;2023-02-28T06:56:17;13.50;;;5.20;;
30380;SDS011;17169;50.966;11.038;2023-02-28T06:59:20;10.00;;;5.50;;
30380;SDS011;17169;50.966;11.038;2023-02-28T07:02:23;10.13;;;5.18;;
30380;SDS011;17169;50.966;11.038;2023-02-28T07:05:25;10.30;;;4.93;;
30380;SDS011;17169;50.966;11.038;2023-02-28T07:08:27;10.32;;;5.10;;
30380;SDS011;17169;50.966;11.038;2023-02-28T07:11:31;9.40;;;4.97;;
30380;SDS011;17169;50.966;11.038;2023-02-28T07:14:35;9.10;;;4.78;;
30380;SDS011;17169;50.966;11.038;2023-02-28T07:17:38;9.35;;;4.88;;
30380;SDS011;17169;50.966;11.038;2023-02-28T07:20:41;9.45;;;4.95;;
30380;SDS011;17169;50.966;11.038;2023-02-28T07:23:43;7.45;;;4.60;;
30380;SDS011;17169;50.966;11.038;2023-02-28T07:26:47;10.48;;;5.20;;
30380;SDS011;17169;50.966;11.038;2023-02-28T07:29:49;9.00;;;4.88;;
30380;SDS011;17169;50.966;11.038;2023-02-28T07:32:52;9.55;;;4.93;;
30380;SDS011;17169;50.966;11.038;2023-02-28T07:35:59;9.57;;;4.82;;
30380;SDS011;17169;50.966;11.038;2023-02-28T07:39:02;9.30;;;4.30;;
30380;SDS011;17169;50.966;11.038;2023-02-28T07:42:06;10.60;;;4.50;;
30380;SDS011;17169;50.966;11.038;2023-02-28T07:45:12;9.40;;;4.95;;
30380;SDS011;17169;50.966;11.038;2023-02-28T07:48:14;7.03;;;3.60;;
30380;SDS011;17169;50.966;11.038;2023-02-28T07:51:17;7.32;;;4.32;;
30380;SDS011;17169;50.966;11.038;2023-02-28T07:54:19;8.70;;;4.60;;
30380;SDS011;17169;50.966;11.038;2023-02-28T07:57:23;8.52;;;4.22;;
30380;SDS011;17169;50.966;11.038;2023-02-28T08:00:26;9.60;;;4.78;;
30380;SDS011;17169;50.966;11.038;2023-02-28T08:03:29;7.68;;;3.85;;
30380;SDS011;17169;50.966;11.038;2023-02-28T08:06:31;9.30;;;4.15;;
30380;SDS011;17169;50.966;11.038;2023-02-28T08:09:34;7.95;;;4.00;;
30380;SDS011;17169;50.966;11.038;2023-02-28T08:12:38;7.93;;;4.05;;
30380;SDS011;17169;50.966;11.038;2023-02-28T08:15:40;8.13;;;4.35;;
30380;SDS011;17169;50.966;11.038;2023-02-28T08:18:43;11.68;;;4.88;;
30380;SDS011;17169;50.966;11.038;2023-02-28T08:21:46;11.80;;;4.90;;
30380;SDS011;17169;50.966;11.038;2023-02-28T08:24:48;15.20;;;4.25;;
30380;SDS011;17169;50.966;11.038;2023-02-28T08:27:52;8.35;;;4.72;;
30380;SDS011;17169;50.966;11.038;2023-02-28T08:30:54;8.55;;;4.65;;
30380;SDS011;17169;50.966;11.038;2023-02-28T08:33:57;8.95;;;4.45;;
30380;SDS011;17169;50.966;11.038;2023-02-28T08:36:59;8.45;;;4.30;;
30380;SDS011;17169;50.966;11.038;2023-02-28T08:40:02;10.75;;;5.13;;
30380;SDS011;17169;50.966;11.038;2023-02-28T08:43:06;12.55;;;4.68;;
30380;SDS011;17169;50.966;11.038;2023-02-28T08:46:10;11.77;;;4.97;;
30380;SDS011;17169;50.966;11.038;2023-02-28T08:49:14;14.50;;;4.50;;
30380;SDS011;17169;50.966;11.038;2023-02-28T08:52:16;11.27;;;4.78;;
30380;SDS011;17169;50.966;11.038;2023-02-28T08:55:19;11.70;;;5.03;;
30380;SDS011;17169;50.966;11.038;2023-02-28T08:58:23;8.48;;;4.75;;
30380;SDS011;17169;50.966;11.038;2023-02-28T09:01:25;8.13;;;5.05;;
30380;SDS011;17169;50.966;11.038;2023-02-28T09:04:29;12.52;;;4.85;;
30380;SDS011;17169;50.966;11.038;2023-02-28T09:07:32;9.80;;;4.60;;
30380;SDS011;17169;50.966;11.038;2023-02-28T09:10:34;13.20;;;4.60;;
30380;SDS011;17169;50.966;11.038;2023-02-28T09:13:38;13.98;;;4.43;;
30380;SDS011;17169;50.966;11.038;2023-02-28T09:16:41;14.05;;;4.05;;
30380;SDS011;17169;50.966;11.038;2023-02-28T09:19:43;8.13;;;4.43;;
30380;SDS011;17169;50.966;11.038;2023-02-28T09:22:46;12.18;;;4.10;;
30380;SDS011;17169;50.966;11.038;2023-02-28T09:25:50;9.27;;;3.72;;
30380;SDS011;17169;50.966;11.038;2023-02-28T09:28:54;14.45;;;4.82;;
30380;SDS011;17169;50.966;11.038;2023-02-28T09:31:59;8.93;;;4.10;;
30380;SDS011;17169;50.966;11.038;2023-02-28T09:35:02;11.00;;;4.20;;
30380;SDS011;17169;50.966;11.038;2023-02-28T09:38:05;7.22;;;3.75;;
30380;SDS011;17169;50.966;11.038;2023-02-28T09:41:11;7.38;;;3.92;;
30380;SDS011;17169;50.966;11.038;2023-02-28T09:44:22;6.70;;;3.67;;
30380;SDS011;17169;50.966;11.038;2023-02-28T09:47:29;7.53;;;4.03;;
30380;SDS011;17169;50.966;11.038;2023-02-28T09:50:35;7.10;;;4.28;;
30380;SDS011;17169;50.966;11.038;2023-02-28T09:53:40;6.80;;;3.67;;
30380;SDS011;17169;50.966;11.038;2023-02-28T09:56:43;9.52;;;3.53;;
30380;SDS011;17169;50.966;11.038;2023-02-28T09:59:51;11.52;;;4.43;;
30380;SDS011;17169;50.966;11.038;2023-02-28T10:03:05;9.88;;;4.38;;
30380;SDS011;17169;50.966;11.038;2023-02-28T10:06:18;8.95;;;3.97;;
30380;SDS011;17169;50.966;11.038;2023-02-28T10:09:24;8.32;;;3.60;;
30380;SDS011;17169;50.966;11.038;2023-02-28T10:15:32;9.35;;;4.65;;
30380;SDS011;17169;50.966;11.038;2023-02-28T10:18:39;9.73;;;3.92;;
30380;SDS011;17169;50.966;11.038;2023-02-28T10:21:46;7.35;;;3.45;;
30380;SDS011;17169;50.966;11.038;2023-02-28T10:24:55;8.10;;;3.92;;
30380;SDS011;17169;50.966;11.038;2023-02-28T10:28:07;8.13;;;3.80;;
30380;SDS011;17169;50.966;11.038;2023-02-28T10:31:15;8.48;;;3.60;;
30380;SDS011;17169;50.966;11.038;2023-02-28T10:34:20;6.43;;;3.60;;
30380;SDS011;17169;50.966;11.038;2023-02-28T10:37:22;6.97;;;3.65;;
30380;SDS011;17169;50.966;11.038;2023-02-28T10:40:26;7.38;;;4.18;;
30380;SDS011;17169;50.966;11.038;2023-02-28T10:43:32;9.68;;;3.67;;
30380;SDS011;17169;50.966;11.038;2023-02-28T10:46:36;10.60;;;4.40;;
30380;SDS011;17169;50.966;11.038;2023-02-28T10:49:45;10.13;;;3.67;;
30380;SDS011;17169;50.966;11.038;2023-02-28T10:52:50;8.32;;;3.85;;
30380;SDS011;17169;50.966;11.038;2023-02-28T10:55:56;6.60;;;3.78;;
30380;SDS011;17169;50.966;11.038;2023-02-28T10:59:02;8.38;;;3.47;;
30380;SDS011;17169;50.966;11.038;2023-02-28T11:05:33;6.97;;;3.63;;
30380;SDS011;17169;50.966;11.038;2023-02-28T11:08:43;8.25;;;4.25;;
30380;SDS011;17169;50.966;11.038;2023-02-28T11:11:47;9.60;;;4.20;;
30380;SDS011;17169;50.966;11.038;2023-02-28T11:14:53;7.95;;;4.20;;
30380;SDS011;17169;50.966;11.038;2023-02-28T11:17:59;6.20;;;3.88;;
30380;SDS011;17169;50.966;11.038;2023-02-28T11:21:05;9.68;;;4.57;;
30380;SDS011;17169;50.966;11.038;2023-02-28T11:24:13;7.70;;;3.88;;
30380;SDS011;17169;50.966;11.038;2023-02-28T11:27:26;6.53;;;4.03;;
30380;SDS011;17169;50.966;11.038;2023-02-28T11:30:49;6.80;;;3.50;;
30380;SDS011;17169;50.966;11.038;2023-02-28T11:34:10;10.40;;;4.05;;
30380;SDS011;17169;50.966;11.038;2023-02-28T11:37:30;6.38;;;4.18;;
30380;SDS011;17169;50.966;11.038;2023-02-28T11:40:36;10.85;;;4.35;;
30380;SDS011;17169;50.966;11.038;2023-02-28T11:43:50;9.38;;;3.97;;
30380;SDS011;17169;50.966;11.038;2023-02-28T11:47:06;8.15;;;4.28;;
30380;SDS011;17169;50.966;11.038;2023-02-28T11:50:20;7.78;;;4.32;;
30380;SDS011;17169;50.966;11.038;2023-02-28T11:53:43;8.48;;;4.70;;
30380;SDS011;17169;50.966;11.038;2023-02-28T11:56:55;13.05;;;4.70;;
30380;SDS011;17169;50.966;11.038;2023-02-28T12:00:03;7.28;;;4.03;;
30380;SDS011;17169;50.966;11.038;2023-02-28T12:03:31;6.80;;;4.10;;
30380;SDS011;17169;50.966;11.038;2023-02-28T12:06:44;6.95;;;3.80;;
30380;SDS011;17169;50.966;11.038;2023-02-28T12:09:55;9.68;;;4.15;;
30380;SDS011;17169;50.966;11.038;2023-02-28T12:13:06;8.25;;;4.53;;
30380;SDS011;17169;50.966;11.038;2023-02-28T12:16:32;8.35;;;3.88;;
30380;SDS011;17169;50.966;11.038;2023-02-28T12:19:46;8.50;;;4.40;;
30380;SDS011;17169;50.966;11.038;2023-02-28T12:22:59;7.93;;;4.60;;
30380;SDS011;17169;50.966;11.038;2023-02-28T12:26:21;10.07;;;4.93;;
30380;SDS011;17169;50.966;11.038;2023-02-28T12:29:32;9.90;;;4.38;;
30380;SDS011;17169;50.966;11.038;2023-02-28T12:32:43;12.13;;;5.10;;
30380;SDS011;17169;50.966;11.038;2023-02-28T12:35:49;7.85;;;4.63;;
30380;SDS011;17169;50.966;11.038;2023-02-28T12:38:58;9.95;;;6.00;;
30380;SDS011;17169;50.966;11.038;2023-02-28T12:42:07;10.35;;;5.43;;
30380;SDS011;17169;50.966;11.038;2023-02-28T12:45:16;7.70;;;4.40;;
30380;SDS011;17169;50.966;11.038;2023-02-28T12:48:21;8.32;;;4.57;;
30380;SDS011;17169;50.966;11.038;2023-02-28T12:51:29;8.40;;;5.40;;
30380;SDS011;17169;50.966;11.038;2023-02-28T12:54:32;11.82;;;5.93;;
30380;SDS011;17169;50.966;11.038;2023-02-28T12:57:41;12.23;;;5.70;;
30380;SDS011;17169;50.966;11.038;2023-02-28T13:00:55;12.65;;;6.85;;
30380;SDS011;17169;50.966;11.038;2023-02-28T13:04:36;8.25;;;4.90;;
30380;SDS011;17169;50.966;11.038;2023-02-28T13:08:10;12.85;;;6.15;;
30380;SDS011;17169;50.966;11.038;2023-02-28T13:11:40;11.90;;;6.28;;
30380;SDS011;17169;50.966;11.038;2023-02-28T13:14:46;14.40;;;6.40;;
30380;SDS011;17169;50.966;11.038;2023-02-28T13:20:54;13.70;;;5.22;;
30380;SDS011;17169;50.966;11.038;2023-02-28T13:23:57;11.05;;;5.40;;
30380;SDS011;17169;50.966;11.038;2023-02-28T13:27:21;11.65;;;5.60;;
30380;SDS011;17169;50.966;11.038;2023-02-28T13:34:16;11.23;;;5.38;;
30380;SDS011;17169;50.966;11.038;2023-02-28T13:40:43;11.40;;;5.30;;
30380;SDS011;17169;50.966;11.038;2023-02-28T13:44:02;11.25;;;5.88;;
30380;SDS011;17169;50.966;11.038;2023-02-28T13:47:21;13.52;;;7.38;;
30380;SDS011;17169;50.966;11.038;2023-02-28T13:50:30;14.32;;;6.32;;
30380;SDS011;17169;50.966;11.038;2023-02-28T13:57:11;11.48;;;6.35;;
30380;SDS011;17169;50.966;11.038;2023-02-28T14:00:28;12.02;;;6.88;;
30380;SDS011;17169;50.966;11.038;2023-02-28T14:03:46;16.13;;;7.82;;
30380;SDS011;17169;50.966;11.038;2023-02-28T14:07:17;13.13;;;6.72;;
30380;SDS011;17169;50.966;11.038;2023-02-28T14:10:24;10.80;;;6.07;;
30380;SDS011;17169;50.966;11.038;2023-02-28T14:13:39;13.38;;;6.60;;
30380;SDS011;17169;50.966;11.038;2023-02-28T14:16:47;11.98;;;5.93;;
30380;SDS011;17169;50.966;11.038;2023-02-28T14:19:52;11.60;;;6.75;;
30380;SDS011;17169;50.966;11.038;2023-02-28T14:22:55;15.60;;;6.85;;
30380;SDS011;17169;50.966;11.038;2023-02-28T14:26:06;12.55;;;6.88;;
30380;SDS011;17169;50.966;11.038;2023-02-28T14:29:24;10.95;;;6.47;;
30380;SDS011;17169;50.966;11.038;2023-02-28T14:32:44;11.82;;;7.07;;
30380;SDS011;17169;50.966;11.038;2023-02-28T14:35:56;11.23;;;5.97;;
30380;SDS011;17169;50.966;11.038;2023-02-28T14:39:06;12.27;;;6.40;;
30380;SDS011;17169;50.966;11.038;2023-02-28T14:45:32;11.82;;;7.10;;
30380;SDS011;17169;50.966;11.038;2023-02-28T14:48:36;9.93;;;6.22;;
30380;SDS011;17169;50.966;11.038;2023-02-28T14:51:40;13.98;;;6.50;;
30380;SDS011;17169;50.966;11.038;2023-02-28T14:54:43;11.60;;;6.88;;
30380;SDS011;17169;50.966;11.038;2023-02-28T14:57:52;13.77;;;7.10;;
30380;SDS011;17169;50.966;11.038;2023-02-28T15:00:57;18.70;;;8.25;;
30380;SDS011;17169;50.966;11.038;2023-02-28T15:04:01;16.05;;;7.80;;
30380;SDS011;17169;50.966;11.038;2023-02-28T15:07:09;13.82;;;7.05;;
30380;SDS011;17169;50.966;11.038;2023-02-28T15:10:17;13.27;;;7.03;;
30380;SDS011;17169;50.966;11.038;2023-02-28T15:13:21;13.95;;;7.38;;
30380;SDS011;17169;50.966;11.038;2023-02-28T15:16:25;16.17;;;8.48;;
30380;SDS011;17169;50.966;11.038;2023-02-28T15:19:31;15.27;;;7.90;;
30380;SDS011;17169;50.966;11.038;2023-02-28T15:25:40;13.55;;;6.32;;
30380;SDS011;17169;50.966;11.038;2023-02-28T15:28:42;11.48;;;7.00;;
30380;SDS011;17169;50.966;11.038;2023-02-28T15:31:48;13.60;;;7.15;;
30380;SDS011;17169;50.966;11.038;2023-02-28T15:34:52;12.45;;;6.32;;
30380;SDS011;17169;50.966;11.038;2023-02-28T15:37:57;22.40;;;8.43;;
30380;SDS011;17169;50.966;11.038;2023-02-28T15:41:02;14.95;;;7.82;;
30380;SDS011;17169;50.966;11.038;2023-02-28T15:44:15;16.80;;;8.10;;
30380;SDS011;17169;50.966;11.038;2023-02-28T15:47:20;14.35;;;7.85;;
30380;SDS011;17169;50.966;11.038;2023-02-28T15:50:27;16.10;;;8.68;;
30380;SDS011;17169;50.966;11.038;2023-02-28T15:53:32;15.15;;;8.73;;
30380;SDS011;17169;50.966;11.038;2023-02-28T15:56:38;14.00;;;7.95;;
30380;SDS011;17169;50.966;11.038;2023-02-28T15:59:48;16.33;;;7.32;;
30380;SDS011;17169;50.966;11.038;2023-02-28T16:02:53;10.25;;;6.70;;
30380;SDS011;17169;50.966;11.038;2023-02-28T16:09:37;13.65;;;6.53;;
30380;SDS011;17169;50.966;11.038;2023-02-28T16:12:39;13.82;;;7.35;;
30380;SDS011;17169;50.966;11.038;2023-02-28T16:15:42;9.80;;;6.32;;
30380;SDS011;17169;50.966;11.038;2023-02-28T16:18:45;15.75;;;7.75;;
30380;SDS011;17169;50.966;11.038;2023-02-28T16:21:48;18.40;;;9.15;;
30380;SDS011;17169;50.966;11.038;2023-02-28T16:24:53;12.23;;;7.50;;
30380;SDS011;17169;50.966;11.038;2023-02-28T16:27:55;12.00;;;7.93;;
30380;SDS011;17169;50.966;11.038;2023-02-28T16:31:01;15.20;;;8.85;;
30380;SDS011;17169;50.966;11.038;2023-02-28T16:34:05;13.35;;;7.55;;
30380;SDS011;17169;50.966;11.038;2023-02-28T16:37:09;12.52;;;7.00;;
30380;SDS011;17169;50.966;11.038;2023-02-28T16:40:15;12.30;;;7.63;;
30380;SDS011;17169;50.966;11.038;2023-02-28T16:43:22;13.70;;;7.30;;
30380;SDS011;17169;50.966;11.038;2023-02-28T16:46:27;15.57;;;8.15;;
30380;SDS011;17169;50.966;11.038;2023-02-28T16:49:33;16.27;;;8.48;;
30380;SDS011;17169;50.966;11.038;2023-02-28T16:52:35;22.48;;;9.65;;
30380;SDS011;17169;50.966;11.038;2023-02-28T16:55:39;16.15;;;8.85;;
30380;SDS011;17169;50.966;11.038;2023-02-28T16:58:42;15.02;;;7.90;;
30380;SDS011;17169;50.966;11.038;2023-02-28T17:01:44;16.48;;;9.35;;
30380;SDS011;17169;50.966;11.038;2023-02-28T17:04:47;18.92;;;8.57;;
30380;SDS011;17169;50.966;11.038;2023-02-28T17:07:49;16.45;;;9.60;;
30380;SDS011;17169;50.966;11.038;2023-02-28T17:10:53;15.55;;;8.23;;
30380;SDS011;17169;50.966;11.038;2023-02-28T17:13:55;15.07;;;8.98;;
30380;SDS011;17169;50.966;11.038;2023-02-28T17:16:58;18.75;;;9.25;;
30380;SDS011;17169;50.966;11.038;2023-02-28T17:20:00;20.02;;;10.60;;
30380;SDS011;17169;50.966;11.038;2023-02-28T17:23:03;19.85;;;10.38;;
30380;SDS011;17169;50.966;11.038;2023-02-28T17:26:08;13.73;;;8.85;;
30380;SDS011;17169;50.966;11.038;2023-02-28T17:29:15;20.83;;;9.52;;
30380;SDS011;17169;50.966;11.038;2023-02-28T17:32:18;16.57;;;9.90;;
30380;SDS011;17169;50.966;11.038;2023-02-28T17:35:20;17.48;;;9.90;;
30380;SDS011;17169;50.966;11.038;2023-02-28T17:38:23;17.83;;;8.80;;
30380;SDS011;17169;50.966;11.038;2023-02-28T17:41:27;14.18;;;8.38;;
30380;SDS011;17169;50.966;11.038;2023-02-28T17:44:30;15.38;;;9.73;;
30380;SDS011;17169;50.966;11.038;2023-02-28T17:47:33;21.10;;;9.75;;
30380;SDS011;17169;50.966;11.038;2023-02-28T17:50:35;17.95;;;9.55;;
30380;SDS011;17169;50.966;11.038;2023-02-28T17:53:37;14.90;;;9.40;;
30380;SDS011;17169;50.966;11.038;2023-02-28T17:56:42;18.60;;;8.13;;
30380;SDS011;17169;50.966;11.038;2023-02-28T17:59:44;19.48;;;9.43;;
30380;SDS011;17169;50.966;11.038;2023-02-28T18:02:47;16.52;;;9.40;;
30380;SDS011;17169;50.966;11.038;2023-02-28T18:05:49;21.75;;;9.82;;
30380;SDS011;17169;50.966;11.038;2023-02-28T18:08:52;17.63;;;9.05;;
30380;SDS011;17169;50.966;11.038;2023-02-28T18:11:56;18.63;;;9.85;;
30380;SDS011;17169;50.966;11.038;2023-02-28T18:14:58;22.45;;;10.75;;
30380;SDS011;17169;50.966;11.038;2023-02-28T18:18:01;22.17;;;12.02;;
30380;SDS011;17169;50.966;11.038;2023-02-28T18:21:03;22.15;;;11.02;;
30380;SDS011;17169;50.966;11.038;2023-02-28T18:24:06;22.70;;;11.88;;
30380;SDS011;17169;50.966;11.038;2023-02-28T18:27:10;20.17;;;12.05;;
30380;SDS011;17169;50.966;11.038;2023-02-28T18:30:13;23.83;;;12.18;;
30380;SDS011;17169;50.966;11.038;2023-02-28T18:33:15;24.70;;;11.90;;
30380;SDS011;17169;50.966;11.038;2023-02-28T18:36:19;21.33;;;12.20;;
30380;SDS011;17169;50.966;11.038;2023-02-28T18:39:22;21.02;;;11.00;;
30380;SDS011;17169;50.966;11.038;2023-02-28T18:42:26;23.73;;;11.25;;
30380;SDS011;17169;50.966;11.038;2023-02-28T18:45:28;21.83;;;12.43;;
30380;SDS011;17169;50.966;11.038;2023-02-28T18:48:31;21.30;;;11.82;;
30380;SDS011;17169;50.966;11.038;2023-02-28T18:51:33;21.50;;;10.80;;
30380;SDS011;17169;50.966;11.038;2023-02-28T18:54:36;26.00;;;13.45;;